Airfield :
LOGIN :

Register | Disclaimer

   EN    FR    IT 

 










Legend :    VFR   Marginal VFR   IFR   Intensive IFR   Very Intensive IFR
Visi :
Ceiling :
>= 8 km
>= 3000ft
5 to 8 km
1000 to 3000 ft
1500m to 5 km
500 to 1000 ft
800 to 1500m
200 to 500 ft
< 800m
< 200 ft
Symbols :   Thunderstorms  Fog  Heavy snow  Heavy precipitations  Wind > 20 kt
SIGMETs :     Misc.  Thunderstorms  Icing  Turbulence  Mountain Waves  Volcanic Ashes







- Airport Elevation : 440 ft


LPST - Sintra AB

EXPIRED METARs :
  • 151600Z 31009KT 4000 -DZRA BKN007 BKN020 16/15 Q1009
  • 151500Z 29012KT 4000 -DZRA BKN007 BKN020 16/15 Q1009

TAF TAF LPST
Valid from the 15 at 15:00 until the 16 at 00:00 UTC


151415Z 1515/1524 27012KT 9999 SCT012 BKN022
TEMPO 1515/1520 28015G25KT 3000 RADZ SCT008 BKN012
BECMG 1520/1522 NSW SCT014 SCT020
PROB40 1522/1524 BKN008
No reported NOTAMs for that airfield.



MET'MAP, your aeronautical weather chart ! - Copyright ORBIFLY December 2007 - Disclaimer

ORBIFLY MET'MAP TEAM :

Programming & Development : Alexandra Zaïnal
Concept & Development : Baudouin d'Aumeries
Co-Development & Prog : Marc-Olivier Méhu
Technical & hardware support : Manuel Goepfert

Contact : metmap@orbifly.com




SOURCES & CREDITS :

   NOAA